createdAt,value
2023-02-27T00:00:00.460Z,101078.25
2023-02-27T00:03:12.030Z,101085.16
2023-02-27T00:06:14.793Z,101083.47
2023-02-27T00:09:18.392Z,101086.00
2023-02-27T00:12:22.442Z,101080.69
2023-02-27T00:15:25.476Z,101085.97
2023-02-27T00:18:28.196Z,101093.81
2023-02-27T00:21:31.145Z,101082.22
2023-02-27T00:24:33.845Z,101091.88
2023-02-27T00:27:37.960Z,101085.66
2023-02-27T00:30:40.770Z,101082.03
2023-02-27T00:33:43.615Z,101088.13
2023-02-27T00:36:46.391Z,101084.59
2023-02-27T00:39:50.303Z,101088.50
2023-02-27T00:42:54.712Z,101084.22
2023-02-27T00:45:57.623Z,101086.81
2023-02-27T00:49:00.321Z,101084.09
2023-02-27T00:52:03.558Z,101092.00
2023-02-27T00:55:07.413Z,101086.75
2023-02-27T00:58:14.546Z,101088.38
2023-02-27T01:01:17.632Z,101091.81
2023-02-27T01:04:20.535Z,101098.81
2023-02-27T01:07:23.272Z,101091.78
2023-02-27T01:10:29.319Z,101098.81
2023-02-27T01:13:33.513Z,101104.13
2023-02-27T01:16:38.587Z,101095.19
2023-02-27T01:19:41.452Z,101095.16
2023-02-27T01:22:44.160Z,101091.59
2023-02-27T01:25:48.226Z,101093.38
2023-02-27T01:28:52.365Z,101081.78
2023-02-27T01:31:55.230Z,101081.88
2023-02-27T01:34:58.039Z,101071.72
2023-02-27T01:38:00.716Z,101073.56
2023-02-27T01:41:04.505Z,101074.84
2023-02-27T01:44:10.564Z,101070.31
2023-02-27T01:47:13.239Z,101075.63
2023-02-27T01:50:16.948Z,101087.97
2023-02-27T01:53:24.975Z,101081.63
2023-02-27T01:56:30.667Z,101090.38
2023-02-27T01:59:36.540Z,101082.13
2023-02-27T02:02:43.312Z,101089.19
2023-02-27T02:05:47.282Z,101096.22
2023-02-27T02:08:52.416Z,101087.09
2023-02-27T02:11:56.220Z,101097.63
2023-02-27T02:15:03.252Z,101096.78
2023-02-27T02:18:20.796Z,101096.03
2023-02-27T02:21:55.314Z,101094.50
2023-02-27T02:25:33.522Z,101091.75
2023-02-27T02:29:20.075Z,101092.69
2023-02-27T02:32:56.288Z,101079.97
2023-02-27T02:36:29.546Z,101090.66
2023-02-27T02:40:18.117Z,101090.59
2023-02-27T02:43:28.743Z,101087.13
2023-02-27T02:46:41.155Z,101087.91
2023-02-27T02:49:50.829Z,101093.13
2023-02-27T02:53:04.923Z,101094.78
2023-02-27T02:56:22.682Z,101092.06
2023-02-27T02:59:31.735Z,101066.22
2023-02-27T03:02:40.563Z,101104.47
2023-02-27T03:05:52.762Z,101096.47
2023-02-27T03:09:00.122Z,101094.72
2023-02-27T03:12:09.091Z,101090.25
2023-02-27T03:15:16.456Z,101097.31
2023-02-27T03:18:32.418Z,101090.19
2023-02-27T03:21:39.919Z,101092.00
2023-02-27T03:24:46.226Z,101094.66
2023-02-27T03:27:57.290Z,101108.09
2023-02-27T03:31:06.370Z,101109.00
2023-02-27T03:34:18.058Z,101102.66
2023-02-27T03:37:40.513Z,101111.53
2023-02-27T03:40:50.691Z,101117.66
2023-02-27T03:44:02.273Z,101115.03
2023-02-27T03:47:05.191Z,101109.75
2023-02-27T03:50:09.381Z,101111.53
2023-02-27T03:53:20.181Z,101115.94
2023-02-27T03:56:30.281Z,101113.31
2023-02-27T03:59:36.965Z,101120.47
2023-02-27T04:02:40.956Z,101114.59
2023-02-27T04:05:44.334Z,101117.94
2023-02-27T04:08:57.866Z,101124.00
2023-02-27T04:12:19.372Z,101128.38
2023-02-27T04:15:32.262Z,101121.91
2023-02-27T04:18:52.811Z,101118.94
2023-02-27T04:22:13.226Z,101129.50
2023-02-27T04:26:08.825Z,101142.09
2023-02-27T04:29:19.136Z,101141.75
2023-02-27T04:32:32.548Z,101140.84
2023-02-27T04:35:40.288Z,101146.03
2023-02-27T04:38:47.405Z,101143.25
2023-02-27T04:41:55.498Z,101151.59
2023-02-27T04:45:02.144Z,101151.31
2023-02-27T04:48:11.605Z,101153.81
2023-02-27T04:51:17.640Z,101159.84
2023-02-27T04:54:30.965Z,101172.16
2023-02-27T04:57:38.212Z,101165.00
2023-02-27T05:00:45.300Z,101167.66
2023-02-27T05:03:52.989Z,101175.63
2023-02-27T05:06:57.433Z,101171.94
2023-02-27T05:10:03.468Z,101174.59
2023-02-27T05:13:17.075Z,101182.56
2023-02-27T05:16:24.246Z,101174.56
2023-02-27T05:19:28.424Z,101174.56
2023-02-27T05:22:37.205Z,101177.16
2023-02-27T05:25:51.460Z,101181.56
2023-02-27T05:29:00.160Z,101172.63
2023-02-27T05:32:12.683Z,101185.97
2023-02-27T05:35:26.813Z,101180.69
2023-02-27T05:38:34.718Z,101181.66
2023-02-27T05:41:45.075Z,101191.78
2023-02-27T05:44:55.418Z,101182.63
2023-02-27T05:48:03.678Z,101176.19
2023-02-27T05:51:10.946Z,101193.97
2023-02-27T05:54:23.429Z,101193.00
2023-02-27T05:57:33.237Z,101188.53
2023-02-27T06:00:40.452Z,101196.53
2023-02-27T06:03:44.690Z,101205.53
2023-02-27T06:06:49.300Z,101204.59
2023-02-27T06:09:52.139Z,101208.03
2023-02-27T06:12:54.928Z,101211.59
2023-02-27T06:15:57.683Z,101215.94
2023-02-27T06:19:04.577Z,101210.63
2023-02-27T06:22:10.022Z,101223.88
2023-02-27T06:25:13.676Z,101214.22
2023-02-27T06:28:16.513Z,101210.06
2023-02-27T06:31:19.206Z,101220.72
2023-02-27T06:34:21.882Z,101217.19
2023-02-27T06:37:25.972Z,101218.50
2023-02-27T06:40:28.721Z,101224.56
2023-02-27T06:43:34.697Z,101221.03
2023-02-27T06:46:37.472Z,101226.31
2023-02-27T06:49:40.162Z,101220.41
2023-02-27T06:52:44.185Z,101217.84
2023-02-27T06:55:46.928Z,101224.03
2023-02-27T06:58:50.102Z,101240.00
2023-02-27T07:01:53.061Z,101233.91
2023-02-27T07:04:55.807Z,101240.09
2023-02-27T07:07:59.931Z,101242.31
2023-02-27T07:11:08.760Z,101243.53
2023-02-27T07:14:12.612Z,101243.94
2023-02-27T07:17:18.576Z,101241.44
2023-02-27T07:20:21.574Z,101240.06
2023-02-27T07:23:28.694Z,101241.13
2023-02-27T07:26:31.412Z,101241.06
2023-02-27T07:29:35.980Z,101243.91
2023-02-27T07:32:38.712Z,101252.81
2023-02-27T07:35:41.464Z,101242.53
2023-02-27T07:38:45.547Z,101244.44
2023-02-27T07:41:48.187Z,101237.47
2023-02-27T07:44:50.905Z,101238.41
2023-02-27T07:47:53.565Z,101235.56
2023-02-27T07:50:56.308Z,101243.47
2023-02-27T07:54:00.359Z,101235.72
2023-02-27T07:57:03.464Z,101238.53
2023-02-27T08:00:08.126Z,101227.16
2023-02-27T08:03:11.513Z,101238.41
2023-02-27T08:06:22.482Z,101229.00
2023-02-27T08:09:26.498Z,101230.09
2023-02-27T08:12:29.151Z,101242.50
2023-02-27T08:15:32.711Z,101212.25
2023-02-27T08:18:49.369Z,101234.84
2023-02-27T08:21:52.071Z,101240.25
2023-02-27T08:24:59.072Z,101239.13
2023-02-27T08:28:03.922Z,101238.59
2023-02-27T08:31:07.094Z,101235.16
2023-02-27T08:34:10.920Z,101236.25
2023-02-27T08:37:14.907Z,101236.31
2023-02-27T08:40:26.652Z,101236.03
2023-02-27T08:43:31.581Z,101233.47
2023-02-27T08:46:34.378Z,101224.00
2023-02-27T08:49:37.076Z,101238.16
2023-02-27T08:52:40.216Z,101233.94
2023-02-27T08:55:45.063Z,101235.63
2023-02-27T08:58:47.779Z,101231.50
2023-02-27T09:01:50.627Z,101245.66
2023-02-27T09:04:53.806Z,101247.50
2023-02-27T09:08:00.370Z,101240.47
2023-02-27T09:11:05.210Z,101235.22
2023-02-27T09:14:10.040Z,101236.19
2023-02-27T09:17:12.730Z,101252.78
2023-02-27T09:20:18.591Z,101244.22
2023-02-27T09:23:22.136Z,101243.22
2023-02-27T09:26:41.961Z,101241.53
2023-02-27T09:29:46.220Z,101207.72
2023-02-27T09:32:49.046Z,101241.88
2023-02-27T09:35:51.808Z,101235.69
2023-02-27T09:38:54.930Z,101235.69
2023-02-27T09:42:02.980Z,101244.56
2023-02-27T09:45:08.460Z,101244.63
2023-02-27T09:48:21.217Z,101251.69
2023-02-27T09:51:24.823Z,101261.41
2023-02-27T09:54:33.952Z,101251.78
2023-02-27T09:57:46.480Z,101242.91
2023-02-27T10:00:51.356Z,101240.38
2023-02-27T10:04:28.974Z,101239.47
2023-02-27T10:07:39.581Z,101264.38
2023-02-27T10:10:55.053Z,101259.94
2023-02-27T10:14:18.878Z,101253.50
2023-02-27T10:17:28.686Z,101262.34
2023-02-27T10:20:34.904Z,101247.28
2023-02-27T10:23:43.088Z,101242.09
2023-02-27T10:26:46.755Z,101251.97
2023-02-27T10:29:51.878Z,101245.75
2023-02-27T10:32:58.233Z,101244.88
2023-02-27T10:36:03.116Z,101252.00
2023-02-27T10:39:09.866Z,101242.22
2023-02-27T10:42:14.949Z,101242.25
2023-02-27T10:45:26.597Z,101242.25
2023-02-27T10:48:29.557Z,101233.41
2023-02-27T10:51:35.095Z,101225.41
2023-02-27T10:54:38.674Z,101222.75
2023-02-27T10:57:43.765Z,101232.56
2023-02-27T11:04:30.849Z,101223.63
2023-02-27T11:07:35.870Z,101212.91
2023-02-27T11:10:38.561Z,101220.00
2023-02-27T11:13:43.785Z,101227.13
2023-02-27T11:16:52.437Z,101228.94
2023-02-27T11:19:55.742Z,101237.00
2023-02-27T11:23:04.771Z,101227.19
2023-02-27T11:26:16.956Z,101232.50
2023-02-27T11:29:21.387Z,101227.19
2023-02-27T11:32:27.120Z,101223.63
2023-02-27T11:35:32.098Z,101220.97
2023-02-27T11:38:37.957Z,101227.19
2023-02-27T11:41:44.843Z,101237.94
2023-02-27T11:45:08.407Z,101228.13
2023-02-27T11:48:19.616Z,101234.38
2023-02-27T11:51:34.105Z,101228.13
2023-02-27T11:54:40.506Z,101221.88
2023-02-27T11:57:47.200Z,101180.84
2023-02-27T12:00:55.791Z,101188.88
2023-02-27T12:04:05.440Z,101208.47
2023-02-27T12:07:18.590Z,101210.25
2023-02-27T12:10:28.877Z,101191.44
2023-02-27T12:13:37.153Z,101195.00
2023-02-27T12:16:54.066Z,101189.53
2023-02-27T12:20:22.982Z,101189.47
2023-02-27T12:23:32.915Z,101192.94
2023-02-27T12:26:43.202Z,101181.09
2023-02-27T12:29:52.193Z,101145.22
2023-02-27T12:33:02.552Z,101164.06
2023-02-27T12:36:13.171Z,101161.31
2023-02-27T12:39:20.153Z,101157.72
2023-02-27T12:42:53.685Z,101165.97
2023-02-27T12:46:08.707Z,101166.03
2023-02-27T12:49:22.244Z,101167.75
2023-02-27T12:52:39.076Z,101160.34
2023-02-27T12:55:48.255Z,101164.13
2023-02-27T12:58:59.336Z,101155.94
2023-02-27T13:02:18.071Z,101142.66
2023-02-27T13:05:32.394Z,101155.41
2023-02-27T13:09:21.337Z,101159.91
2023-02-27T13:12:28.522Z,101160.00
2023-02-27T13:15:37.743Z,101160.13
2023-02-27T13:18:45.505Z,101147.53
2023-02-27T13:21:54.802Z,101164.59
2023-02-27T13:25:02.933Z,101149.19
2023-02-27T13:28:09.451Z,101152.78
2023-02-27T13:31:21.107Z,101133.81
2023-02-27T13:34:31.529Z,101125.84
2023-02-27T13:37:56.043Z,101150.13
2023-02-27T13:41:38.190Z,101160.13
2023-02-27T13:44:42.885Z,101161.03
2023-02-27T13:47:50.002Z,101133.28
2023-02-27T13:50:53.250Z,101147.56
2023-02-27T13:54:09.987Z,101139.44
2023-02-27T13:57:22.875Z,101144.63
2023-02-27T14:00:31.838Z,101135.56
2023-02-27T14:03:34.645Z,101123.72
2023-02-27T14:06:45.713Z,101134.66
2023-02-27T14:09:51.700Z,101140.22
2023-02-27T14:12:57.499Z,101132.00
2023-02-27T14:16:00.893Z,101133.84
2023-02-27T14:19:04.614Z,101137.47
2023-02-27T14:22:39.922Z,101129.47
2023-02-27T14:25:47.615Z,101124.88
2023-02-27T14:28:55.735Z,101128.41
2023-02-27T14:32:02.074Z,101128.59
2023-02-27T14:35:07.143Z,101132.94
2023-02-27T14:38:12.092Z,101129.09
2023-02-27T14:41:38.063Z,101119.19
2023-02-27T14:44:44.741Z,101128.72
2023-02-27T14:47:47.927Z,101124.22
2023-02-27T14:50:54.087Z,101126.72
2023-02-27T14:54:06.405Z,101113.19
2023-02-27T14:57:16.480Z,101117.59
2023-02-27T15:00:37.841Z,101110.66
2023-02-27T15:03:45.956Z,101117.00
2023-02-27T15:06:51.045Z,101117.16
2023-02-27T15:09:58.941Z,101117.25
2023-02-27T15:13:03.638Z,101110.16
2023-02-27T15:16:37.440Z,101111.00
2023-02-27T15:19:49.850Z,101113.72
2023-02-27T15:22:52.584Z,101118.44
2023-02-27T15:25:57.013Z,101121.13
2023-02-27T15:29:00.677Z,101117.34
2023-02-27T15:32:05.715Z,101120.09
2023-02-27T15:35:16.770Z,101127.47
2023-02-27T15:38:27.123Z,101121.19
2023-02-27T15:41:30.221Z,101131.25
2023-02-27T15:44:38.509Z,101135.75
2023-02-27T15:47:44.014Z,101132.22
2023-02-27T15:50:48.670Z,101137.47
2023-02-27T15:53:55.001Z,101142.09
2023-02-27T15:56:58.537Z,101144.63
2023-02-27T16:00:02.123Z,101146.41
2023-02-27T16:03:07.470Z,101148.31
2023-02-27T16:06:13.018Z,101156.47
2023-02-27T16:09:25.846Z,101160.13
2023-02-27T16:12:33.528Z,101173.56
2023-02-27T16:15:38.261Z,101171.63
2023-02-27T16:18:48.776Z,101183.34
2023-02-27T16:22:06.552Z,101180.66
2023-02-27T16:25:11.091Z,101185.19
2023-02-27T16:28:15.057Z,101188.75
2023-02-27T16:31:25.628Z,101185.22
2023-02-27T16:34:44.775Z,101188.88
2023-02-27T16:37:49.377Z,101198.66
2023-02-27T16:40:52.532Z,101198.69
2023-02-27T16:43:55.772Z,101201.34
2023-02-27T16:46:59.616Z,101204.06
2023-02-27T16:50:03.701Z,101205.84
2023-02-27T16:53:06.381Z,101207.63
2023-02-27T16:56:10.828Z,101205.81
2023-02-27T16:59:35.022Z,101213.84
2023-02-27T17:02:41.046Z,101206.72
2023-02-27T17:05:45.107Z,101211.16
2023-02-27T17:08:47.801Z,101224.53
2023-02-27T17:11:50.932Z,101223.63
2023-02-27T17:14:53.888Z,101226.34
2023-02-27T17:17:56.544Z,101223.66
2023-02-27T17:21:03.274Z,101223.66
2023-02-27T17:24:07.058Z,101237.84
2023-02-27T17:27:10.428Z,101254.78
2023-02-27T17:30:15.473Z,101252.94
2023-02-27T17:33:18.678Z,101257.38
2023-02-27T17:36:24.309Z,101261.81
2023-02-27T17:39:29.262Z,101271.63
2023-02-27T17:42:32.108Z,101263.59
2023-02-27T17:45:34.822Z,101265.47
2023-02-27T17:48:38.167Z,101274.31
2023-02-27T17:51:42.180Z,101278.84
2023-02-27T17:54:45.127Z,101276.97
2023-02-27T18:01:05.774Z,101282.34
2023-02-27T18:04:11.267Z,101292.16
2023-02-27T18:07:16.897Z,101294.75
2023-02-27T18:10:25.371Z,101300.13
2023-02-27T18:13:29.785Z,101298.31
2023-02-27T18:16:32.823Z,101311.66
2023-02-27T18:19:35.599Z,101301.84
2023-02-27T18:22:39.675Z,101301.81
2023-02-27T18:25:42.589Z,101308.91
2023-02-27T18:28:49.026Z,101296.34
2023-02-27T18:31:53.975Z,101316.91
2023-02-27T18:34:56.813Z,101314.28
2023-02-27T18:38:02.359Z,101322.25
2023-02-27T18:41:06.748Z,101280.38
2023-02-27T18:44:10.546Z,101315.97
2023-02-27T18:47:16.322Z,101323.06
2023-02-27T18:50:20.060Z,101322.25
2023-02-27T18:53:24.034Z,101319.59
2023-02-27T18:56:30.390Z,101323.03
2023-02-27T18:59:36.092Z,101320.34
2023-02-27T19:02:41.632Z,101320.34
2023-02-27T19:05:52.075Z,101321.25
2023-02-27T19:08:56.849Z,101326.63
2023-02-27T19:12:00.318Z,101324.66
2023-02-27T19:15:08.665Z,101323.84
2023-02-27T19:18:11.289Z,101328.31
2023-02-27T19:21:14.241Z,101328.22
2023-02-27T19:24:18.333Z,101329.03
2023-02-27T19:27:21.116Z,101325.53
2023-02-27T19:30:25.373Z,101328.94
2023-02-27T19:33:28.754Z,101337.03
2023-02-27T19:36:35.511Z,101336.22
2023-02-27T19:39:39.890Z,101333.41
2023-02-27T19:42:44.649Z,101335.13
2023-02-27T19:45:47.579Z,101338.66
2023-02-27T19:48:54.009Z,101331.59
2023-02-27T19:51:56.794Z,101336.06
2023-02-27T19:55:00.829Z,101343.28
2023-02-27T19:58:05.827Z,101344.19
2023-02-27T20:01:09.801Z,101338.03
2023-02-27T20:04:12.834Z,101335.34
2023-02-27T20:07:15.613Z,101342.56
2023-02-27T20:10:20.127Z,101334.66
2023-02-27T20:13:22.960Z,101341.66
2023-02-27T20:16:28.476Z,101341.66
2023-02-27T20:19:31.311Z,101338.28
2023-02-27T20:22:34.250Z,101331.97
2023-02-27T20:25:38.335Z,101333.69
2023-02-27T20:28:41.049Z,101331.13
2023-02-27T20:31:46.250Z,101340.91
2023-02-27T20:34:49.069Z,101347.94
2023-02-27T20:37:53.997Z,101341.78
2023-02-27T20:40:59.337Z,101345.31
2023-02-27T20:44:02.299Z,101346.19
2023-02-27T20:47:08.067Z,101335.50
2023-02-27T20:50:12.548Z,101336.44
2023-02-27T20:53:15.194Z,101331.16
2023-02-27T20:56:21.455Z,101326.81
2023-02-27T20:59:25.276Z,101315.13
2023-02-27T21:02:28.300Z,101342.81
2023-02-27T21:05:31.124Z,101332.00
2023-02-27T21:08:36.474Z,101334.69
2023-02-27T21:11:40.647Z,101331.13
2023-02-27T21:14:44.508Z,101328.56
2023-02-27T21:17:47.485Z,101337.34
2023-02-27T21:20:53.750Z,101335.59
2023-02-27T21:23:56.814Z,101332.97
2023-02-27T21:27:00.980Z,101337.19
2023-02-27T21:30:03.950Z,101331.06
2023-02-27T21:33:07.216Z,101338.13
2023-02-27T21:36:12.068Z,101335.34
2023-02-27T21:39:17.479Z,101338.84
2023-02-27T21:42:22.211Z,101345.94
2023-02-27T21:45:24.891Z,101331.72
2023-02-27T21:48:27.928Z,101337.91
2023-02-27T21:51:39.994Z,101307.66
2023-02-27T21:54:45.428Z,101318.50
2023-02-27T21:57:49.642Z,101325.53
2023-02-27T22:00:52.398Z,101322.81
2023-02-27T22:03:55.645Z,101331.41
2023-02-27T22:06:58.422Z,101334.00
2023-02-27T22:10:01.347Z,101332.25
2023-02-27T22:13:09.384Z,101329.41
2023-02-27T22:16:13.463Z,101339.88
2023-02-27T22:19:19.925Z,101339.97
2023-02-27T22:22:22.845Z,101335.34
2023-02-27T22:25:25.654Z,101334.47
2023-02-27T22:28:30.689Z,101334.34
2023-02-27T22:31:35.352Z,101341.16
2023-02-27T22:34:38.125Z,101340.09
2023-02-27T22:37:40.838Z,101335.38
2023-02-27T22:40:46.744Z,101342.75
2023-02-27T22:43:53.700Z,101342.50
2023-02-27T22:46:56.859Z,101341.56
2023-02-27T22:49:59.557Z,101342.72
2023-02-27T22:53:02.286Z,101336.50
2023-02-27T22:56:06.151Z,101341.66
2023-02-27T22:59:10.376Z,101344.31
2023-02-27T23:02:13.053Z,101347.94
2023-02-27T23:05:15.887Z,101339.97
2023-02-27T23:08:18.604Z,101344.31
2023-02-27T23:11:24.526Z,101342.47
2023-02-27T23:14:28.931Z,101339.56
2023-02-27T23:17:33.130Z,101320.72
2023-02-27T23:20:37.870Z,101344.56
2023-02-27T23:23:41.163Z,101347.34
2023-02-27T23:26:47.033Z,101350.94
2023-02-27T23:29:54.091Z,101356.13
2023-02-27T23:32:58.784Z,101356.94
2023-02-27T23:36:01.744Z,101350.00
2023-02-27T23:39:06.059Z,101348.94
2023-02-27T23:42:19.137Z,101361.34
2023-02-27T23:45:26.698Z,101353.44
2023-02-27T23:48:29.439Z,101359.31
2023-02-27T23:51:34.314Z,101350.38
2023-02-27T23:54:40.219Z,101362.03
2023-02-27T23:57:42.998Z,101363.00
